sensor_id;sensor_type;location;lat;lon;timestamp;temperature;humidity
9998;DHT22;5038;53.064;8.624;2023-01-08T00:01:05;9.60;99.90
9998;DHT22;5038;53.064;8.624;2023-01-08T00:03:34;9.50;99.90
9998;DHT22;5038;53.064;8.624;2023-01-08T00:06:07;9.60;99.90
9998;DHT22;5038;53.064;8.624;2023-01-08T00:08:35;9.60;99.90
9998;DHT22;5038;53.064;8.624;2023-01-08T00:11:04;9.60;99.90
9998;DHT22;5038;53.064;8.624;2023-01-08T00:13:32;9.60;99.90
9998;DHT22;5038;53.064;8.624;2023-01-08T00:16:05;9.60;99.90
9998;DHT22;5038;53.064;8.624;2023-01-08T00:18:33;9.60;99.90
9998;DHT22;5038;53.064;8.624;2023-01-08T00:21:03;9.60;99.90
9998;DHT22;5038;53.064;8.624;2023-01-08T00:23:32;9.60;99.90
9998;DHT22;5038;53.064;8.624;2023-01-08T00:26:01;9.60;99.90
9998;DHT22;5038;53.064;8.624;2023-01-08T00:28:30;9.70;99.90
9998;DHT22;5038;53.064;8.624;2023-01-08T00:30:58;9.70;99.90
9998;DHT22;5038;53.064;8.624;2023-01-08T00:33:29;9.60;99.90
9998;DHT22;5038;53.064;8.624;2023-01-08T00:35:58;9.70;99.90
9998;DHT22;5038;53.064;8.624;2023-01-08T00:38:28;9.70;99.90
9998;DHT22;5038;53.064;8.624;2023-01-08T00:40:56;9.70;99.90
9998;DHT22;5038;53.064;8.624;2023-01-08T00:43:25;9.70;99.90
9998;DHT22;5038;53.064;8.624;2023-01-08T00:45:53;9.70;99.90
9998;DHT22;5038;53.064;8.624;2023-01-08T00:48:22;9.70;99.90
9998;DHT22;5038;53.064;8.624;2023-01-08T00:50:51;9.70;99.90
9998;DHT22;5038;53.064;8.624;2023-01-08T00:53:20;9.70;99.90
9998;DHT22;5038;53.064;8.624;2023-01-08T00:55:59;9.80;99.90
9998;DHT22;5038;53.064;8.624;2023-01-08T00:58:27;9.80;99.90
9998;DHT22;5038;53.064;8.624;2023-01-08T01:00:56;9.80;99.90
9998;DHT22;5038;53.064;8.624;2023-01-08T01:03:24;9.80;99.90
9998;DHT22;5038;53.064;8.624;2023-01-08T01:05:59;9.80;99.90
9998;DHT22;5038;53.064;8.624;2023-01-08T01:08:28;9.80;99.90
9998;DHT22;5038;53.064;8.624;2023-01-08T01:10:57;9.80;99.90
9998;DHT22;5038;53.064;8.624;2023-01-08T01:13:25;9.80;99.90
9998;DHT22;5038;53.064;8.624;2023-01-08T01:15:57;9.80;99.90
9998;DHT22;5038;53.064;8.624;2023-01-08T01:18:26;9.80;99.90
9998;DHT22;5038;53.064;8.624;2023-01-08T01:20:55;9.80;99.90
9998;DHT22;5038;53.064;8.624;2023-01-08T01:23:23;9.80;99.90
9998;DHT22;5038;53.064;8.624;2023-01-08T01:25:51;9.80;99.90
9998;DHT22;5038;53.064;8.624;2023-01-08T01:28:21;9.80;99.90
9998;DHT22;5038;53.064;8.624;2023-01-08T01:30:53;9.80;99.90
9998;DHT22;5038;53.064;8.624;2023-01-08T01:33:22;9.80;99.90
9998;DHT22;5038;53.064;8.624;2023-01-08T01:35:58;9.80;99.90
9998;DHT22;5038;53.064;8.624;2023-01-08T01:38:27;9.80;99.90
9998;DHT22;5038;53.064;8.624;2023-01-08T01:40:55;9.80;99.90
9998;DHT22;5038;53.064;8.624;2023-01-08T01:43:36;9.80;99.90
9998;DHT22;5038;53.064;8.624;2023-01-08T01:46:15;9.80;99.90
9998;DHT22;5038;53.064;8.624;2023-01-08T01:48:44;9.80;99.90
9998;DHT22;5038;53.064;8.624;2023-01-08T01:51:14;9.80;99.90
9998;DHT22;5038;53.064;8.624;2023-01-08T01:53:44;9.90;99.90
9998;DHT22;5038;53.064;8.624;2023-01-08T01:56:12;9.80;99.90
9998;DHT22;5038;53.064;8.624;2023-01-08T01:58:46;9.80;99.90
9998;DHT22;5038;53.064;8.624;2023-01-08T02:01:15;9.80;99.90
9998;DHT22;5038;53.064;8.624;2023-01-08T02:03:43;9.80;99.90
9998;DHT22;5038;53.064;8.624;2023-01-08T02:06:18;9.80;99.90
9998;DHT22;5038;53.064;8.624;2023-01-08T02:08:55;9.90;99.90
9998;DHT22;5038;53.064;8.624;2023-01-08T02:11:30;9.90;99.90
9998;DHT22;5038;53.064;8.624;2023-01-08T02:14:07;9.90;99.90
9998;DHT22;5038;53.064;8.624;2023-01-08T02:16:41;9.90;99.90
9998;DHT22;5038;53.064;8.624;2023-01-08T02:19:19;9.90;99.90
9998;DHT22;5038;53.064;8.624;2023-01-08T02:21:56;9.90;99.90
9998;DHT22;5038;53.064;8.624;2023-01-08T02:24:38;10.00;99.90
9998;DHT22;5038;53.064;8.624;2023-01-08T02:27:12;9.90;99.90
9998;DHT22;5038;53.064;8.624;2023-01-08T02:29:41;9.90;99.90
9998;DHT22;5038;53.064;8.624;2023-01-08T02:32:09;10.00;99.90
9998;DHT22;5038;53.064;8.624;2023-01-08T02:34:38;10.00;99.90
9998;DHT22;5038;53.064;8.624;2023-01-08T02:37:08;10.00;99.90
9998;DHT22;5038;53.064;8.624;2023-01-08T02:40:00;10.00;99.90
9998;DHT22;5038;53.064;8.624;2023-01-08T02:42:35;10.00;99.90
9998;DHT22;5038;53.064;8.624;2023-01-08T02:45:17;10.00;99.90
9998;DHT22;5038;53.064;8.624;2023-01-08T02:47:50;10.00;99.90
9998;DHT22;5038;53.064;8.624;2023-01-08T02:50:23;10.00;99.90
9998;DHT22;5038;53.064;8.624;2023-01-08T02:52:58;10.00;99.90
9998;DHT22;5038;53.064;8.624;2023-01-08T02:55:29;10.00;99.90
9998;DHT22;5038;53.064;8.624;2023-01-08T02:58:02;10.00;99.90
9998;DHT22;5038;53.064;8.624;2023-01-08T03:00:31;10.10;99.90
9998;DHT22;5038;53.064;8.624;2023-01-08T03:03:06;10.10;99.90
9998;DHT22;5038;53.064;8.624;2023-01-08T03:05:39;10.10;99.90
9998;DHT22;5038;53.064;8.624;2023-01-08T03:08:08;10.10;99.90
9998;DHT22;5038;53.064;8.624;2023-01-08T03:10:39;10.10;99.90
9998;DHT22;5038;53.064;8.624;2023-01-08T03:13:13;10.10;99.90
9998;DHT22;5038;53.064;8.624;2023-01-08T03:15:47;10.10;99.90
9998;DHT22;5038;53.064;8.624;2023-01-08T03:18:20;10.10;99.90
9998;DHT22;5038;53.064;8.624;2023-01-08T03:20:52;10.10;99.90
9998;DHT22;5038;53.064;8.624;2023-01-08T03:23:22;10.10;99.90
9998;DHT22;5038;53.064;8.624;2023-01-08T03:25:51;10.10;99.90
9998;DHT22;5038;53.064;8.624;2023-01-08T03:28:24;10.10;99.90
9998;DHT22;5038;53.064;8.624;2023-01-08T03:30:56;10.10;99.90
9998;DHT22;5038;53.064;8.624;2023-01-08T03:33:27;10.10;99.90
9998;DHT22;5038;53.064;8.624;2023-01-08T03:36:00;10.10;99.90
9998;DHT22;5038;53.064;8.624;2023-01-08T03:38:34;10.10;99.90
9998;DHT22;5038;53.064;8.624;2023-01-08T03:41:06;10.10;99.90
9998;DHT22;5038;53.064;8.624;2023-01-08T03:43:37;10.10;99.90
9998;DHT22;5038;53.064;8.624;2023-01-08T03:46:09;10.10;99.90
9998;DHT22;5038;53.064;8.624;2023-01-08T03:48:40;10.10;99.90
9998;DHT22;5038;53.064;8.624;2023-01-08T03:51:10;10.10;99.90
9998;DHT22;5038;53.064;8.624;2023-01-08T03:53:38;10.10;99.90
9998;DHT22;5038;53.064;8.624;2023-01-08T03:56:07;10.10;99.90
9998;DHT22;5038;53.064;8.624;2023-01-08T03:58:36;10.00;99.90
9998;DHT22;5038;53.064;8.624;2023-01-08T04:01:05;10.00;99.90
9998;DHT22;5038;53.064;8.624;2023-01-08T04:03:33;10.10;99.90
9998;DHT22;5038;53.064;8.624;2023-01-08T04:06:01;10.00;99.90
9998;DHT22;5038;53.064;8.624;2023-01-08T04:08:30;10.00;99.90
9998;DHT22;5038;53.064;8.624;2023-01-08T04:10:59;10.00;99.90
9998;DHT22;5038;53.064;8.624;2023-01-08T04:13:27;9.90;99.90
9998;DHT22;5038;53.064;8.624;2023-01-08T04:15:56;9.90;99.90
9998;DHT22;5038;53.064;8.624;2023-01-08T04:18:25;9.90;99.90
9998;DHT22;5038;53.064;8.624;2023-01-08T04:20:53;9.90;99.90
9998;DHT22;5038;53.064;8.624;2023-01-08T04:23:21;9.90;99.90
9998;DHT22;5038;53.064;8.624;2023-01-08T04:25:49;9.90;99.90
9998;DHT22;5038;53.064;8.624;2023-01-08T04:28:18;9.80;99.90
9998;DHT22;5038;53.064;8.624;2023-01-08T04:30:46;9.80;99.90
9998;DHT22;5038;53.064;8.624;2023-01-08T04:33:16;9.80;99.90
9998;DHT22;5038;53.064;8.624;2023-01-08T04:35:44;9.80;99.90
9998;DHT22;5038;53.064;8.624;2023-01-08T04:38:12;9.80;99.90
9998;DHT22;5038;53.064;8.624;2023-01-08T04:40:40;9.80;99.90
9998;DHT22;5038;53.064;8.624;2023-01-08T04:43:08;9.80;99.90
9998;DHT22;5038;53.064;8.624;2023-01-08T04:45:36;9.70;99.90
9998;DHT22;5038;53.064;8.624;2023-01-08T04:48:05;9.80;99.90
9998;DHT22;5038;53.064;8.624;2023-01-08T04:50:35;9.80;99.90
9998;DHT22;5038;53.064;8.624;2023-01-08T04:53:03;9.70;99.90
9998;DHT22;5038;53.064;8.624;2023-01-08T04:55:32;9.70;99.90
9998;DHT22;5038;53.064;8.624;2023-01-08T04:58:00;9.70;99.90
9998;DHT22;5038;53.064;8.624;2023-01-08T05:00:29;9.70;99.90
9998;DHT22;5038;53.064;8.624;2023-01-08T05:02:57;9.70;99.90
9998;DHT22;5038;53.064;8.624;2023-01-08T05:05:26;9.60;99.90
9998;DHT22;5038;53.064;8.624;2023-01-08T05:07:55;9.70;99.90
9998;DHT22;5038;53.064;8.624;2023-01-08T05:10:24;9.70;99.90
9998;DHT22;5038;53.064;8.624;2023-01-08T05:12:54;9.70;99.90
9998;DHT22;5038;53.064;8.624;2023-01-08T05:15:24;9.70;99.90
9998;DHT22;5038;53.064;8.624;2023-01-08T05:17:57;9.70;99.90
9998;DHT22;5038;53.064;8.624;2023-01-08T05:20:26;9.70;99.90
9998;DHT22;5038;53.064;8.624;2023-01-08T05:22:55;9.70;99.90
9998;DHT22;5038;53.064;8.624;2023-01-08T05:25:24;9.70;99.90
9998;DHT22;5038;53.064;8.624;2023-01-08T05:27:52;9.70;99.90
9998;DHT22;5038;53.064;8.624;2023-01-08T05:30:20;9.60;99.90
9998;DHT22;5038;53.064;8.624;2023-01-08T05:32:49;9.70;99.90
9998;DHT22;5038;53.064;8.624;2023-01-08T05:35:17;9.60;99.90
9998;DHT22;5038;53.064;8.624;2023-01-08T05:37:45;9.70;99.90
9998;DHT22;5038;53.064;8.624;2023-01-08T05:40:15;9.70;99.90
9998;DHT22;5038;53.064;8.624;2023-01-08T05:42:43;9.70;99.90
9998;DHT22;5038;53.064;8.624;2023-01-08T05:45:11;9.70;99.90
9998;DHT22;5038;53.064;8.624;2023-01-08T05:47:41;9.70;99.90
9998;DHT22;5038;53.064;8.624;2023-01-08T05:50:09;9.60;99.90
9998;DHT22;5038;53.064;8.624;2023-01-08T05:52:37;9.70;99.90
9998;DHT22;5038;53.064;8.624;2023-01-08T05:55:06;9.70;99.90
9998;DHT22;5038;53.064;8.624;2023-01-08T05:57:36;9.70;99.90
9998;DHT22;5038;53.064;8.624;2023-01-08T06:00:05;9.70;99.90
9998;DHT22;5038;53.064;8.624;2023-01-08T06:02:37;9.70;99.90
9998;DHT22;5038;53.064;8.624;2023-01-08T06:05:05;9.70;99.90
9998;DHT22;5038;53.064;8.624;2023-01-08T06:07:34;9.70;99.90
9998;DHT22;5038;53.064;8.624;2023-01-08T06:10:02;9.70;99.90
9998;DHT22;5038;53.064;8.624;2023-01-08T06:12:31;9.70;99.90
9998;DHT22;5038;53.064;8.624;2023-01-08T06:15:00;9.70;99.90
9998;DHT22;5038;53.064;8.624;2023-01-08T06:17:28;9.70;99.90
9998;DHT22;5038;53.064;8.624;2023-01-08T06:19:56;9.70;99.90
9998;DHT22;5038;53.064;8.624;2023-01-08T06:22:25;9.70;99.90
9998;DHT22;5038;53.064;8.624;2023-01-08T06:24:53;9.80;99.90
9998;DHT22;5038;53.064;8.624;2023-01-08T06:27:21;9.80;99.90
9998;DHT22;5038;53.064;8.624;2023-01-08T06:29:49;9.80;99.90
9998;DHT22;5038;53.064;8.624;2023-01-08T06:32:19;9.80;99.90
9998;DHT22;5038;53.064;8.624;2023-01-08T06:34:47;9.80;99.90
9998;DHT22;5038;53.064;8.624;2023-01-08T06:37:15;9.80;99.90
9998;DHT22;5038;53.064;8.624;2023-01-08T06:39:43;9.80;99.90
9998;DHT22;5038;53.064;8.624;2023-01-08T06:42:11;9.80;99.90
9998;DHT22;5038;53.064;8.624;2023-01-08T06:44:40;9.80;99.90
9998;DHT22;5038;53.064;8.624;2023-01-08T06:47:08;9.80;99.90
9998;DHT22;5038;53.064;8.624;2023-01-08T06:49:37;9.80;99.90
9998;DHT22;5038;53.064;8.624;2023-01-08T06:52:05;9.80;99.90
9998;DHT22;5038;53.064;8.624;2023-01-08T06:54:34;9.70;99.90
9998;DHT22;5038;53.064;8.624;2023-01-08T06:57:02;9.80;99.90
9998;DHT22;5038;53.064;8.624;2023-01-08T06:59:30;9.70;99.90
9998;DHT22;5038;53.064;8.624;2023-01-08T07:01:58;9.80;99.90
9998;DHT22;5038;53.064;8.624;2023-01-08T07:04:26;9.70;99.90
9998;DHT22;5038;53.064;8.624;2023-01-08T07:06:56;9.70;99.90
9998;DHT22;5038;53.064;8.624;2023-01-08T07:09:24;9.80;99.90
9998;DHT22;5038;53.064;8.624;2023-01-08T07:11:53;9.70;99.90
9998;DHT22;5038;53.064;8.624;2023-01-08T07:14:21;10.00;99.90
9998;DHT22;5038;53.064;8.624;2023-01-08T07:16:49;9.70;99.90
9998;DHT22;5038;53.064;8.624;2023-01-08T07:19:17;9.80;99.90
9998;DHT22;5038;53.064;8.624;2023-01-08T07:21:45;9.70;99.90
9998;DHT22;5038;53.064;8.624;2023-01-08T07:24:14;9.70;99.90
9998;DHT22;5038;53.064;8.624;2023-01-08T07:26:43;9.80;99.90
9998;DHT22;5038;53.064;8.624;2023-01-08T07:29:11;9.70;99.90
9998;DHT22;5038;53.064;8.624;2023-01-08T07:31:39;9.70;99.90
9998;DHT22;5038;53.064;8.624;2023-01-08T07:34:07;9.70;99.90
9998;DHT22;5038;53.064;8.624;2023-01-08T07:36:35;9.70;99.90
9998;DHT22;5038;53.064;8.624;2023-01-08T07:39:04;9.70;99.90
9998;DHT22;5038;53.064;8.624;2023-01-08T07:41:33;9.70;99.90
9998;DHT22;5038;53.064;8.624;2023-01-08T07:44:01;9.60;99.90
9998;DHT22;5038;53.064;8.624;2023-01-08T07:46:30;9.60;99.90
9998;DHT22;5038;53.064;8.624;2023-01-08T07:48:58;9.60;99.90
9998;DHT22;5038;53.064;8.624;2023-01-08T07:51:26;9.70;99.90
9998;DHT22;5038;53.064;8.624;2023-01-08T07:53:55;9.70;99.90
9998;DHT22;5038;53.064;8.624;2023-01-08T07:56:23;9.70;99.90
9998;DHT22;5038;53.064;8.624;2023-01-08T07:58:53;9.60;99.90
9998;DHT22;5038;53.064;8.624;2023-01-08T08:01:21;9.60;99.90
9998;DHT22;5038;53.064;8.624;2023-01-08T08:03:52;9.60;99.90
9998;DHT22;5038;53.064;8.624;2023-01-08T08:06:20;9.60;99.90
9998;DHT22;5038;53.064;8.624;2023-01-08T08:08:48;9.60;99.90
9998;DHT22;5038;53.064;8.624;2023-01-08T08:11:16;9.60;99.90
9998;DHT22;5038;53.064;8.624;2023-01-08T08:13:44;9.60;99.90
9998;DHT22;5038;53.064;8.624;2023-01-08T08:16:14;9.60;99.90
9998;DHT22;5038;53.064;8.624;2023-01-08T08:18:42;9.60;99.90
9998;DHT22;5038;53.064;8.624;2023-01-08T08:21:11;9.60;99.90
9998;DHT22;5038;53.064;8.624;2023-01-08T08:23:39;9.60;99.90
9998;DHT22;5038;53.064;8.624;2023-01-08T08:26:07;9.60;99.90
9998;DHT22;5038;53.064;8.624;2023-01-08T08:28:35;9.60;99.90
9998;DHT22;5038;53.064;8.624;2023-01-08T08:31:04;9.60;99.90
9998;DHT22;5038;53.064;8.624;2023-01-08T08:33:33;9.60;99.90
9998;DHT22;5038;53.064;8.624;2023-01-08T08:36:02;9.60;99.90
9998;DHT22;5038;53.064;8.624;2023-01-08T08:38:30;9.60;99.90
9998;DHT22;5038;53.064;8.624;2023-01-08T08:40:58;9.60;99.90
9998;DHT22;5038;53.064;8.624;2023-01-08T08:43:27;9.60;99.90
9998;DHT22;5038;53.064;8.624;2023-01-08T08:45:55;9.60;99.90
9998;DHT22;5038;53.064;8.624;2023-01-08T08:48:23;9.60;99.90
9998;DHT22;5038;53.064;8.624;2023-01-08T08:50:53;9.60;99.90
9998;DHT22;5038;53.064;8.624;2023-01-08T08:53:21;9.60;99.90
9998;DHT22;5038;53.064;8.624;2023-01-08T08:55:52;9.60;99.90
9998;DHT22;5038;53.064;8.624;2023-01-08T08:58:21;9.70;99.90
9998;DHT22;5038;53.064;8.624;2023-01-08T09:00:49;9.70;99.90
9998;DHT22;5038;53.064;8.624;2023-01-08T09:03:17;9.70;99.90
9998;DHT22;5038;53.064;8.624;2023-01-08T09:05:46;9.70;99.90
9998;DHT22;5038;53.064;8.624;2023-01-08T09:08:15;9.70;99.90
9998;DHT22;5038;53.064;8.624;2023-01-08T09:10:44;9.70;99.90
9998;DHT22;5038;53.064;8.624;2023-01-08T09:13:12;9.70;99.90
9998;DHT22;5038;53.064;8.624;2023-01-08T09:15:40;9.70;99.90
9998;DHT22;5038;53.064;8.624;2023-01-08T09:18:08;9.70;99.90
9998;DHT22;5038;53.064;8.624;2023-01-08T09:20:37;9.70;99.90
9998;DHT22;5038;53.064;8.624;2023-01-08T09:23:05;9.70;99.90
9998;DHT22;5038;53.064;8.624;2023-01-08T09:25:35;9.80;99.90
9998;DHT22;5038;53.064;8.624;2023-01-08T09:28:04;9.80;99.90
9998;DHT22;5038;53.064;8.624;2023-01-08T09:30:34;9.80;99.90
9998;DHT22;5038;53.064;8.624;2023-01-08T09:33:02;9.70;99.90
9998;DHT22;5038;53.064;8.624;2023-01-08T09:35:32;9.70;99.90
9998;DHT22;5038;53.064;8.624;2023-01-08T09:38:00;9.80;99.90
9998;DHT22;5038;53.064;8.624;2023-01-08T09:40:36;9.80;99.90
9998;DHT22;5038;53.064;8.624;2023-01-08T09:43:04;9.80;99.90
9998;DHT22;5038;53.064;8.624;2023-01-08T09:45:34;9.80;99.90
9998;DHT22;5038;53.064;8.624;2023-01-08T09:48:06;9.80;99.90
9998;DHT22;5038;53.064;8.624;2023-01-08T09:50:37;9.80;99.90
9998;DHT22;5038;53.064;8.624;2023-01-08T09:53:09;9.80;99.90
9998;DHT22;5038;53.064;8.624;2023-01-08T09:55:41;9.80;99.90
9998;DHT22;5038;53.064;8.624;2023-01-08T09:58:15;9.80;99.90
9998;DHT22;5038;53.064;8.624;2023-01-08T10:00:49;9.80;99.90
9998;DHT22;5038;53.064;8.624;2023-01-08T10:03:18;9.80;99.90
9998;DHT22;5038;53.064;8.624;2023-01-08T10:05:46;9.70;99.90
9998;DHT22;5038;53.064;8.624;2023-01-08T10:08:14;9.70;99.90
9998;DHT22;5038;53.064;8.624;2023-01-08T10:10:44;9.70;99.90
9998;DHT22;5038;53.064;8.624;2023-01-08T10:13:13;9.70;99.90
9998;DHT22;5038;53.064;8.624;2023-01-08T10:15:42;9.70;99.90
9998;DHT22;5038;53.064;8.624;2023-01-08T10:18:12;9.70;99.90
9998;DHT22;5038;53.064;8.624;2023-01-08T10:20:41;9.70;99.90
9998;DHT22;5038;53.064;8.624;2023-01-08T10:23:11;9.70;99.90
9998;DHT22;5038;53.064;8.624;2023-01-08T10:25:50;9.70;99.90
9998;DHT22;5038;53.064;8.624;2023-01-08T10:28:21;9.70;99.90
9998;DHT22;5038;53.064;8.624;2023-01-08T10:30:51;9.70;99.90
9998;DHT22;5038;53.064;8.624;2023-01-08T10:33:23;9.70;99.90
9998;DHT22;5038;53.064;8.624;2023-01-08T10:35:54;9.70;99.90
9998;DHT22;5038;53.064;8.624;2023-01-08T10:38:29;9.80;99.90
9998;DHT22;5038;53.064;8.624;2023-01-08T10:41:03;9.80;99.90
9998;DHT22;5038;53.064;8.624;2023-01-08T10:43:40;9.80;99.90
9998;DHT22;5038;53.064;8.624;2023-01-08T10:46:14;9.80;99.90
9998;DHT22;5038;53.064;8.624;2023-01-08T10:48:49;9.90;99.90
9998;DHT22;5038;53.064;8.624;2023-01-08T10:51:20;9.90;99.90
9998;DHT22;5038;53.064;8.624;2023-01-08T10:53:51;9.80;99.90
9998;DHT22;5038;53.064;8.624;2023-01-08T10:56:22;9.90;99.90
9998;DHT22;5038;53.064;8.624;2023-01-08T10:58:51;10.00;99.90
9998;DHT22;5038;53.064;8.624;2023-01-08T11:01:22;10.00;99.90
9998;DHT22;5038;53.064;8.624;2023-01-08T11:03:52;10.00;99.90
9998;DHT22;5038;53.064;8.624;2023-01-08T11:06:24;10.10;99.90
9998;DHT22;5038;53.064;8.624;2023-01-08T11:08:54;10.00;99.90
9998;DHT22;5038;53.064;8.624;2023-01-08T11:11:31;10.10;99.90
9998;DHT22;5038;53.064;8.624;2023-01-08T11:14:02;10.10;99.90
9998;DHT22;5038;53.064;8.624;2023-01-08T11:16:33;10.10;99.90
9998;DHT22;5038;53.064;8.624;2023-01-08T11:19:02;10.10;99.90
9998;DHT22;5038;53.064;8.624;2023-01-08T11:21:33;10.10;99.90
9998;DHT22;5038;53.064;8.624;2023-01-08T11:24:09;10.20;99.90
9998;DHT22;5038;53.064;8.624;2023-01-08T11:26:44;10.20;99.90
9998;DHT22;5038;53.064;8.624;2023-01-08T11:29:14;10.20;99.90
9998;DHT22;5038;53.064;8.624;2023-01-08T11:31:49;10.20;99.90
9998;DHT22;5038;53.064;8.624;2023-01-08T11:34:24;10.20;99.90
9998;DHT22;5038;53.064;8.624;2023-01-08T11:36:57;10.20;99.90
9998;DHT22;5038;53.064;8.624;2023-01-08T11:39:26;10.20;99.90
9998;DHT22;5038;53.064;8.624;2023-01-08T11:42:16;10.20;99.90
9998;DHT22;5038;53.064;8.624;2023-01-08T11:44:59;10.20;99.90
9998;DHT22;5038;53.064;8.624;2023-01-08T11:47:50;10.20;99.90
9998;DHT22;5038;53.064;8.624;2023-01-08T11:50:27;10.20;99.90
9998;DHT22;5038;53.064;8.624;2023-01-08T11:53:09;10.20;99.90
9998;DHT22;5038;53.064;8.624;2023-01-08T11:55:49;10.20;99.90
9998;DHT22;5038;53.064;8.624;2023-01-08T11:58:31;10.30;99.90
9998;DHT22;5038;53.064;8.624;2023-01-08T12:01:27;10.30;99.90
9998;DHT22;5038;53.064;8.624;2023-01-08T12:04:12;10.30;99.90
9998;DHT22;5038;53.064;8.624;2023-01-08T12:06:48;10.20;99.90
9998;DHT22;5038;53.064;8.624;2023-01-08T12:09:28;10.30;99.90
9998;DHT22;5038;53.064;8.624;2023-01-08T12:12:03;10.30;99.90
9998;DHT22;5038;53.064;8.624;2023-01-08T12:14:47;10.30;99.90
9998;DHT22;5038;53.064;8.624;2023-01-08T12:17:35;10.30;99.90
9998;DHT22;5038;53.064;8.624;2023-01-08T12:20:14;10.30;99.90
9998;DHT22;5038;53.064;8.624;2023-01-08T12:22:50;10.30;99.90
9998;DHT22;5038;53.064;8.624;2023-01-08T12:25:40;10.30;99.90
9998;DHT22;5038;53.064;8.624;2023-01-08T12:28:20;10.40;99.90
9998;DHT22;5038;53.064;8.624;2023-01-08T12:31:14;10.40;99.90
9998;DHT22;5038;53.064;8.624;2023-01-08T12:33:48;10.40;99.90
9998;DHT22;5038;53.064;8.624;2023-01-08T12:36:22;10.40;99.90
9998;DHT22;5038;53.064;8.624;2023-01-08T12:38:53;10.40;99.90
9998;DHT22;5038;53.064;8.624;2023-01-08T12:41:23;10.40;99.90
9998;DHT22;5038;53.064;8.624;2023-01-08T12:43:55;10.50;99.90
9998;DHT22;5038;53.064;8.624;2023-01-08T12:46:30;10.50;99.90
9998;DHT22;5038;53.064;8.624;2023-01-08T12:49:00;10.50;99.90
9998;DHT22;5038;53.064;8.624;2023-01-08T12:51:33;10.40;99.90
9998;DHT22;5038;53.064;8.624;2023-01-08T12:54:09;10.50;99.90
9998;DHT22;5038;53.064;8.624;2023-01-08T12:56:45;10.50;99.90
9998;DHT22;5038;53.064;8.624;2023-01-08T12:59:20;10.50;99.90
9998;DHT22;5038;53.064;8.624;2023-01-08T13:01:56;10.50;99.90
9998;DHT22;5038;53.064;8.624;2023-01-08T13:04:38;10.50;99.90
9998;DHT22;5038;53.064;8.624;2023-01-08T13:07:11;10.50;99.90
9998;DHT22;5038;53.064;8.624;2023-01-08T13:09:43;10.50;99.90
9998;DHT22;5038;53.064;8.624;2023-01-08T13:12:13;10.50;99.90
9998;DHT22;5038;53.064;8.624;2023-01-08T13:14:45;10.50;99.90
9998;DHT22;5038;53.064;8.624;2023-01-08T13:17:19;10.50;99.90
9998;DHT22;5038;53.064;8.624;2023-01-08T13:19:52;10.50;99.90
9998;DHT22;5038;53.064;8.624;2023-01-08T13:22:26;10.50;99.90
9998;DHT22;5038;53.064;8.624;2023-01-08T13:25:10;10.50;99.90
9998;DHT22;5038;53.064;8.624;2023-01-08T13:27:50;10.40;99.90
9998;DHT22;5038;53.064;8.624;2023-01-08T13:30:38;10.40;99.90
9998;DHT22;5038;53.064;8.624;2023-01-08T13:33:37;10.50;99.90
9998;DHT22;5038;53.064;8.624;2023-01-08T13:36:19;10.60;99.90
9998;DHT22;5038;53.064;8.624;2023-01-08T13:38:59;10.60;99.90
9998;DHT22;5038;53.064;8.624;2023-01-08T13:41:30;10.60;99.90
9998;DHT22;5038;53.064;8.624;2023-01-08T13:44:01;10.60;99.90
9998;DHT22;5038;53.064;8.624;2023-01-08T13:46:32;10.70;99.90
9998;DHT22;5038;53.064;8.624;2023-01-08T13:49:04;10.70;99.90
9998;DHT22;5038;53.064;8.624;2023-01-08T13:51:40;10.70;99.90
9998;DHT22;5038;53.064;8.624;2023-01-08T13:54:19;10.70;99.90
9998;DHT22;5038;53.064;8.624;2023-01-08T13:56:51;10.70;99.90
9998;DHT22;5038;53.064;8.624;2023-01-08T13:59:30;10.70;99.90
9998;DHT22;5038;53.064;8.624;2023-01-08T14:02:01;10.70;99.90
9998;DHT22;5038;53.064;8.624;2023-01-08T14:04:31;10.60;99.90
9998;DHT22;5038;53.064;8.624;2023-01-08T14:07:20;10.60;99.90
9998;DHT22;5038;53.064;8.624;2023-01-08T14:09:50;10.60;99.90
9998;DHT22;5038;53.064;8.624;2023-01-08T14:12:20;10.50;99.90
9998;DHT22;5038;53.064;8.624;2023-01-08T14:14:50;10.50;99.90
9998;DHT22;5038;53.064;8.624;2023-01-08T14:17:26;10.50;99.90
9998;DHT22;5038;53.064;8.624;2023-01-08T14:19:58;10.50;99.90
9998;DHT22;5038;53.064;8.624;2023-01-08T14:22:29;10.40;99.90
9998;DHT22;5038;53.064;8.624;2023-01-08T14:25:02;10.40;99.90
9998;DHT22;5038;53.064;8.624;2023-01-08T14:27:31;10.40;99.90
9998;DHT22;5038;53.064;8.624;2023-01-08T14:30:00;10.40;99.90
9998;DHT22;5038;53.064;8.624;2023-01-08T14:32:29;10.40;99.90
9998;DHT22;5038;53.064;8.624;2023-01-08T14:34:59;10.30;99.90
9998;DHT22;5038;53.064;8.624;2023-01-08T14:37:29;10.40;99.90
9998;DHT22;5038;53.064;8.624;2023-01-08T14:39:57;10.30;99.90
9998;DHT22;5038;53.064;8.624;2023-01-08T14:42:31;10.30;99.90
9998;DHT22;5038;53.064;8.624;2023-01-08T14:45:19;10.30;99.90
9998;DHT22;5038;53.064;8.624;2023-01-08T14:47:50;10.30;99.90
9998;DHT22;5038;53.064;8.624;2023-01-08T14:50:24;10.30;99.90
9998;DHT22;5038;53.064;8.624;2023-01-08T14:52:55;10.30;99.90
9998;DHT22;5038;53.064;8.624;2023-01-08T14:55:25;10.20;99.90
9998;DHT22;5038;53.064;8.624;2023-01-08T14:57:55;10.20;99.90
9998;DHT22;5038;53.064;8.624;2023-01-08T15:00:26;10.20;99.90
9998;DHT22;5038;53.064;8.624;2023-01-08T15:02:55;10.20;99.90
9998;DHT22;5038;53.064;8.624;2023-01-08T15:05:28;10.20;99.90
9998;DHT22;5038;53.064;8.624;2023-01-08T15:07:59;10.20;99.90
9998;DHT22;5038;53.064;8.624;2023-01-08T15:10:37;10.20;99.90
9998;DHT22;5038;53.064;8.624;2023-01-08T15:13:10;10.20;99.90
9998;DHT22;5038;53.064;8.624;2023-01-08T15:15:53;10.20;99.90
9998;DHT22;5038;53.064;8.624;2023-01-08T15:18:22;10.10;99.90
9998;DHT22;5038;53.064;8.624;2023-01-08T15:20:52;10.10;99.90
9998;DHT22;5038;53.064;8.624;2023-01-08T15:23:25;10.10;99.90
9998;DHT22;5038;53.064;8.624;2023-01-08T15:25:54;10.10;99.90
9998;DHT22;5038;53.064;8.624;2023-01-08T15:28:23;10.10;99.90
9998;DHT22;5038;53.064;8.624;2023-01-08T15:30:52;10.00;99.90
9998;DHT22;5038;53.064;8.624;2023-01-08T15:33:23;10.00;99.90
9998;DHT22;5038;53.064;8.624;2023-01-08T15:35:54;10.00;99.90
9998;DHT22;5038;53.064;8.624;2023-01-08T15:38:22;10.00;99.90
9998;DHT22;5038;53.064;8.624;2023-01-08T15:40:50;10.00;99.90
9998;DHT22;5038;53.064;8.624;2023-01-08T15:43:20;10.00;99.90
9998;DHT22;5038;53.064;8.624;2023-01-08T15:45:48;10.00;99.90
9998;DHT22;5038;53.064;8.624;2023-01-08T15:48:17;9.90;99.90
9998;DHT22;5038;53.064;8.624;2023-01-08T15:50:45;9.90;99.90
9998;DHT22;5038;53.064;8.624;2023-01-08T15:53:21;9.90;99.90
9998;DHT22;5038;53.064;8.624;2023-01-08T15:55:49;9.90;99.90
9998;DHT22;5038;53.064;8.624;2023-01-08T15:58:18;9.80;99.90
9998;DHT22;5038;53.064;8.624;2023-01-08T16:00:46;9.80;99.90
9998;DHT22;5038;53.064;8.624;2023-01-08T16:03:14;9.80;99.90
9998;DHT22;5038;53.064;8.624;2023-01-08T16:05:43;9.70;99.90
9998;DHT22;5038;53.064;8.624;2023-01-08T16:08:11;9.70;99.90
9998;DHT22;5038;53.064;8.624;2023-01-08T16:10:41;9.70;99.90
9998;DHT22;5038;53.064;8.624;2023-01-08T16:13:09;9.70;99.90
9998;DHT22;5038;53.064;8.624;2023-01-08T16:15:38;9.70;99.90
9998;DHT22;5038;53.064;8.624;2023-01-08T16:18:06;9.60;99.90
9998;DHT22;5038;53.064;8.624;2023-01-08T16:20:35;9.60;99.90
9998;DHT22;5038;53.064;8.624;2023-01-08T16:23:03;9.60;99.90
9998;DHT22;5038;53.064;8.624;2023-01-08T16:25:31;9.50;99.90
9998;DHT22;5038;53.064;8.624;2023-01-08T16:28:02;9.50;99.90
9998;DHT22;5038;53.064;8.624;2023-01-08T16:30:30;9.50;99.90
9998;DHT22;5038;53.064;8.624;2023-01-08T16:33:01;9.40;99.90
9998;DHT22;5038;53.064;8.624;2023-01-08T16:35:30;9.50;99.90
9998;DHT22;5038;53.064;8.624;2023-01-08T16:37:58;9.40;99.90